M I D A S
Marine Information and Data Acquisition System
Tripno 1187 of the Zeeleeuw from 2006-11-22 07:29:31 to 2006-11-22 16:52:26
Back to CruiseResearch ActivitiesStationsMapUnderway DataData graphs

EquipmentUnitsComment
TimeDGPSUTC
LatitudeDGPSDM.mWGS84
LongitudeDGPSDM.mWGS84
HeadingGyrodeg 
SOGDGPSknotsSpeed over ground
COGDGPSdegCourse over ground
DepthEcho soundermeters200 kHz
Missing or incorrect values are displayed as -999
Navigation data collected by the RV Zeeleeuw from 2006-11-22 07:19:05 to 2006-11-22 17:03:09
                                                                                    Next 1000 lines
Time Latitude Longitude Heading SOG COG Depth
2006-11-22 07:19:16 51°13.597 2°56.092 110.2 0.9 292 6.3
2006-11-22 07:19:20 51°13.598 2°56.09 110.1 1.3 293 6.3
2006-11-22 07:19:25 51°13.599 2°56.086 110 1.8 292 6.4
2006-11-22 07:19:30 51°13.6 2°56.082 109.9 2 291 6.5
2006-11-22 07:19:36 51°13.601 2°56.075 109.6 2.4 289 -999
2006-11-22 07:19:41 51°13.603 2°56.07 109.4 2.7 289 -999
2006-11-22 07:19:46 51°13.604 2°56.064 109.4 2.9 287 -999
2006-11-22 07:19:51 51°13.605 2°56.057 109.4 3.1 289 -999
2006-11-22 07:19:56 51°13.607 2°56.05 109.5 3.2 287 -999
2006-11-22 07:20:01 51°13.608 2°56.043 109.8 3.4 289 -999
2006-11-22 07:20:06 51°13.61 2°56.035 109.9 3.5 288 -999
2006-11-22 07:20:11 51°13.611 2°56.027 110 3.7 288 -999
2006-11-22 07:20:16 51°13.613 2°56.019 110.3 4 288 -999
2006-11-22 07:20:21 51°13.615 2°56.01 111.4 4.2 289 -999
2006-11-22 07:20:26 51°13.617 2°56.001 112.7 4.3 289 -999
2006-11-22 07:20:31 51°13.619 2°55.992 114.1 4.3 290 -999
2006-11-22 07:20:36 51°13.621 2°55.983 115.7 4.4 292 -999
2006-11-22 07:20:41 51°13.624 2°55.973 117.5 4.5 293 -999
2006-11-22 07:20:46 51°13.626 2°55.964 119.1 4.6 295 -999
2006-11-22 07:20:51 51°13.629 2°55.955 120.3 4.7 295 -999
2006-11-22 07:20:56 51°13.632 2°55.945 121.1 4.8 297 -999
2006-11-22 07:21:01 51°13.635 2°55.935 121.9 4.9 297 -999
2006-11-22 07:21:06 51°13.638 2°55.926 122.6 5 298 -999
2006-11-22 07:21:12 51°13.643 2°55.914 123.6 5.1 299 -999
2006-11-22 07:21:16 51°13.646 2°55.906 124.5 5.2 301 -999
2006-11-22 07:21:21 51°13.65 2°55.896 125.4 5.3 301 -999
2006-11-22 07:21:26 51°13.654 2°55.886 126.2 5.3 302 -999
2006-11-22 07:21:31 51°13.658 2°55.876 126.9 5.4 303 -999
2006-11-22 07:21:36 51°13.662 2°55.865 127.7 5.5 303 -999
2006-11-22 07:21:41 51°13.666 2°55.856 128.1 5.5 304 -999
2006-11-22 07:21:46 51°13.671 2°55.845 128.7 5.5 304 -999
2006-11-22 07:21:51 51°13.675 2°55.836 129 5.5 305 -999
2006-11-22 07:21:56 51°13.68 2°55.826 129.1 5.6 305 -999
2006-11-22 07:22:01 51°13.684 2°55.816 129.2 5.6 306 -999
2006-11-22 07:22:06 51°13.688 2°55.806 129.2 5.3 306 -999
2006-11-22 07:22:11 51°13.693 2°55.797 129.2 5.1 306 10
2006-11-22 07:22:16 51°13.696 2°55.788 129.1 5 305 10.9
2006-11-22 07:22:19 51°13.699 2°55.783 128.2 4.9 305 11.3
2006-11-22 07:22:26 51°13.704 2°55.771 127.4 4.9 305 -999
2006-11-22 07:22:30 51°13.707 2°55.763 125.8 4.9 304 12.7
2006-11-22 07:22:36 51°13.711 2°55.753 123.9 4.7 303 -999
2006-11-22 07:22:41 51°13.714 2°55.745 122.3 4.4 302 78.2
2006-11-22 07:22:46 51°13.717 2°55.737 120.8 4.1 301 45.1
2006-11-22 07:22:50 51°13.719 2°55.731 119.5 3.9 300 11.3
2006-11-22 07:22:55 51°13.722 2°55.724 118 3.7 300 10.7
2006-11-22 07:23:01 51°13.724 2°55.717 116.5 3 299 10.4
2006-11-22 07:23:06 51°13.726 2°55.713 114.6 2.2 299 10.3
2006-11-22 07:23:10 51°13.726 2°55.712 110.3 1.5 303 10.3
2006-11-22 07:23:16 51°13.727 2°55.712 106.7 0.6 343 10.4
2006-11-22 07:23:20 51°13.728 2°55.713 101.2 0.7 55 10.3
2006-11-22 07:23:26 51°13.729 2°55.716 94.5 1.2 65 10.2
2006-11-22 07:23:30 51°13.73 2°55.718 87 1.5 61 9.8
2006-11-22 07:23:35 51°13.731 2°55.722 80 1.8 60 9.7
2006-11-22 07:23:40 51°13.732 2°55.725 71.8 1.9 53 9.6
2006-11-22 07:23:45 51°13.734 2°55.728 65.5 1.9 51 9.9
2006-11-22 07:23:50 51°13.736 2°55.731 60.3 1.8 43 9.8
2006-11-22 07:23:56 51°13.738 2°55.733 57.4 1.5 42 9.5
2006-11-22 07:24:00 51°13.739 2°55.734 54.4 1.2 36 9.5
2006-11-22 07:24:05 51°13.74 2°55.735 50.9 0.8 27 9.4
2006-11-22 07:24:10 51°13.74 2°55.735 46.9 0.3 350 9.2
2006-11-22 07:24:15 51°13.74 2°55.734 44.6 0.4 263 9.2
2006-11-22 07:24:20 51°13.739 2°55.732 42.2 0.7 240 9.2
2006-11-22 07:24:25 51°13.738 2°55.73 40.5 1.1 231 9
2006-11-22 07:24:30 51°13.737 2°55.728 39.1 1.6 224 -999
2006-11-22 07:24:36 51°13.734 2°55.725 37.7 2 221 -999
2006-11-22 07:24:41 51°13.732 2°55.722 36.7 2.2 220 -999
2006-11-22 07:24:46 51°13.729 2°55.719 36.3 2.1 219 -999
2006-11-22 07:24:51 51°13.727 2°55.716 36.2 1.9 221 -999
2006-11-22 07:24:56 51°13.726 2°55.714 35.6 1.6 222 -999
2006-11-22 07:25:01 51°13.724 2°55.712 34.8 1.4 225 -999
2006-11-22 07:25:06 51°13.723 2°55.71 33.6 1.2 226 10.4
2006-11-22 07:25:10 51°13.723 2°55.709 31.8 0.9 238 10.6
2006-11-22 07:25:15 51°13.723 2°55.708 29.9 0.3 294 10.5
2006-11-22 07:25:20 51°13.725 2°55.708 24.7 1 355 10.5
2006-11-22 07:25:25 51°13.727 2°55.708 18.7 1.5 1 10.5
2006-11-22 07:25:30 51°13.73 2°55.708 11.6 1.9 359 10.2
2006-11-22 07:25:35 51°13.733 2°55.707 5.5 2.3 352 10.3
2006-11-22 07:25:40 51°13.737 2°55.706 357 2.6 348 10
2006-11-22 07:25:46 51°13.742 2°55.703 350.3 3.2 340 9.6
2006-11-22 07:25:50 51°13.746 2°55.7 344.6 3.6 339 9.6
2006-11-22 07:25:55 51°13.751 2°55.696 340.5 4.5 332 9.4
2006-11-22 07:26:00 51°13.758 2°55.691 337.2 5 333 9.4
2006-11-22 07:26:06 51°13.766 2°55.683 337.2 5.7 331 9.3
2006-11-22 07:26:10 51°13.773 2°55.678 338.5 6.2 334 9.2
2006-11-22 07:26:16 51°13.783 2°55.67 339 6.7 333 9.2
2006-11-22 07:26:20 51°13.79 2°55.665 339.2 7.1 334 9.3
2006-11-22 07:26:25 51°13.8 2°55.657 339.2 7.5 334 9.7
2006-11-22 07:26:30 51°13.809 2°55.649 339.1 7.8 335 9.4
2006-11-22 07:26:36 51°13.822 2°55.64 339.8 8.2 336 9.4
2006-11-22 07:26:40 51°13.83 2°55.634 340.7 8.4 336 9.4
2006-11-22 07:26:45 51°13.841 2°55.626 340.8 8.6 336 9.3
2006-11-22 07:26:50 51°13.852 2°55.618 340.3 8.8 336 9
2006-11-22 07:26:55 51°13.863 2°55.609 339 8.9 334 8.8
2006-11-22 07:27:00 51°13.875 2°55.601 339 9.1 335 9
2006-11-22 07:27:05 51°13.887 2°55.592 340.3 9.2 335 9.1
2006-11-22 07:27:10 51°13.899 2°55.584 341.1 9.3 336 9.3
2006-11-22 07:27:15 51°13.911 2°55.576 340.9 9.4 335 9.8
2006-11-22 07:27:20 51°13.923 2°55.567 340.7 9.5 335 9.3
2006-11-22 07:27:25 51°13.935 2°55.559 340.8 9.5 336 9.2
2006-11-22 07:27:30 51°13.947 2°55.55 340.8 9.5 336 9.2
2006-11-22 07:27:35 51°13.959 2°55.542 340.5 9.3 335 9.1
2006-11-22 07:27:40 51°13.97 2°55.533 340.3 9.1 335 9
2006-11-22 07:27:46 51°13.983 2°55.523 339.9 8.9 335 9.5
2006-11-22 07:27:50 51°13.992 2°55.517 339.5 8.8 335 9.4
2006-11-22 07:27:54 51°14.001 2°55.51 339.5 8.6 335 9.4
2006-11-22 07:28:00 51°14.014 2°55.502 341.1 8.5 337 9.2
2006-11-22 07:28:05 51°14.025 2°55.494 341.6 8.4 337 9.3
2006-11-22 07:28:10 51°14.035 2°55.487 341.6 8.3 337 9.3
2006-11-22 07:28:15 51°14.046 2°55.48 341.1 8.2 336 9.5
2006-11-22 07:28:20 51°14.056 2°55.473 341 8.1 336 9.5
2006-11-22 07:28:26 51°14.068 2°55.464 341 8.1 336 9.6
2006-11-22 07:28:30 51°14.077 2°55.459 341 8 337 9.6
2006-11-22 07:28:36 51°14.089 2°55.45 340.6 8 335 9.6
2006-11-22 07:28:40 51°14.097 2°55.444 340.1 8.1 335 9.6
2006-11-22 07:28:45 51°14.107 2°55.436 339.4 8.2 335 9.6
2006-11-22 07:28:51 51°14.12 2°55.426 339 8.3 335 9.6
2006-11-22 07:28:54 51°14.126 2°55.421 339.3 8.4 334 9.8
2006-11-22 07:29:00 51°14.139 2°55.412 339.3 8.4 335 9.9
2006-11-22 07:29:06 51°14.151 2°55.401 338.2 8.5 332 9.9
2006-11-22 07:29:11 51°14.161 2°55.392 337.3 8.5 332 10
2006-11-22 07:29:16 51°14.172 2°55.382 335.9 8.6 330 -999
2006-11-22 07:29:21 51°14.182 2°55.372 334.2 8.6 328 -999
2006-11-22 07:29:26 51°14.192 2°55.362 332 8.7 326 10
2006-11-22 07:29:30 51°14.2 2°55.353 330.3 8.7 325 9.7
2006-11-22 07:29:36 51°14.211 2°55.339 329.1 8.6 324 -999
2006-11-22 07:29:41 51°14.221 2°55.328 328.1 8.6 323 9.8
2006-11-22 07:29:46 51°14.23 2°55.315 325.7 8.6 319 9.9
2006-11-22 07:29:50 51°14.237 2°55.305 323.6 8.6 318 9.7
2006-11-22 07:29:56 51°14.247 2°55.289 321.7 8.6 316 10.2
2006-11-22 07:30:01 51°14.255 2°55.275 319.6 8.6 314 9.6
2006-11-22 07:30:05 51°14.262 2°55.264 317.5 8.6 312 9.6
2006-11-22 07:30:10 51°14.27 2°55.249 316.1 8.7 312 9.5
2006-11-22 07:30:15 51°14.278 2°55.234 315.8 8.9 312 9.7
2006-11-22 07:30:20 51°14.286 2°55.22 316.2 9 312 9.7
2006-11-22 07:30:26 51°14.297 2°55.201 316.3 9.1 311 9.6
2006-11-22 07:30:30 51°14.304 2°55.189 316.1 9.2 312 9.3
2006-11-22 07:30:36 51°14.314 2°55.171 316 9.4 311 9.2
2006-11-22 07:30:39 51°14.319 2°55.162 315.8 9.5 311 9.2
2006-11-22 07:30:46 51°14.332 2°55.14 315.5 9.6 312 9.3
2006-11-22 07:30:50 51°14.339 2°55.128 316 9.6 312 9.3
2006-11-22 07:30:56 51°14.35 2°55.109 316.3 9.6 313 9.3
2006-11-22 07:31:00 51°14.358 2°55.096 317 9.7 314 9.4
2006-11-22 07:31:06 51°14.369 2°55.079 317.8 9.8 315 9.5
2006-11-22 07:31:10 51°14.377 2°55.067 319.9 9.8 316 9.5
2006-11-22 07:31:16 51°14.389 2°55.05 321.7 9.8 319 9.4
2006-11-22 07:31:19 51°14.395 2°55.042 324.1 9.7 321 9.5
2006-11-22 07:31:25 51°14.408 2°55.026 326.4 9.8 322 9.5
2006-11-22 07:31:30 51°14.42 2°55.012 328.4 10 324 9.5
2006-11-22 07:31:36 51°14.434 2°54.999 330.9 9.9 328 9.4
2006-11-22 07:31:40 51°14.444 2°54.99 333.4 10.1 330 9.3
2006-11-22 07:31:45 51°14.456 2°54.98 336 10.1 333 9.2
2006-11-22 07:31:50 51°14.469 2°54.971 339.4 10.2 335 9
2006-11-22 07:31:55 51°14.483 2°54.962 341.9 10.4 339 8.7
2006-11-22 07:32:01 51°14.499 2°54.954 345.7 10.5 343 8.5
2006-11-22 07:32:05 51°14.51 2°54.949 349.7 10.5 345 8.5
2006-11-22 07:32:10 51°14.525 2°54.946 353.7 10.5 350 8.5
2006-11-22 07:32:15 51°14.54 2°54.943 357.4 10.7 353 8.4
2006-11-22 07:32:20 51°14.554 2°54.943 1.9 10.7 359 8.2
2006-11-22 07:32:26 51°14.573 2°54.942 4.7 10.7 358 8.2
2006-11-22 07:32:30 51°14.585 2°54.943 6.1 10.8 1 8.4
2006-11-22 07:32:35 51°14.6 2°54.943 7.4 10.9 1 8.2
2006-11-22 07:32:40 51°14.615 2°54.944 8.8 10.9 1 8.2
2006-11-22 07:32:46 51°14.634 2°54.944 8.7 11 1 8.3
2006-11-22 07:32:50 51°14.646 2°54.943 7.3 11.1 359 8.3
2006-11-22 07:32:55 51°14.662 2°54.944 7.2 11.4 -999 8.4
2006-11-22 07:33:00 51°14.676 2°54.944 8.5 11.4 1 8
2006-11-22 07:33:06 51°14.696 2°54.947 9.8 11.1 5 8.2
2006-11-22 07:33:10 51°14.708 2°54.95 12.3 11.2 5 8.1
2006-11-22 07:33:15 51°14.725 2°54.951 13.4 11.7 5 8
2006-11-22 07:33:20 51°14.74 2°54.953 13.7 11.5 5 7.8
2006-11-22 07:33:25 51°14.755 2°54.957 15.5 11.4 8 7.7
2006-11-22 07:33:30 51°14.772 2°54.96 14.9 11.6 7 7.9
2006-11-22 07:33:36 51°14.791 2°54.964 15.6 11.8 6 7.9
2006-11-22 07:33:40 51°14.804 2°54.964 14.5 11.8 3 7.7
2006-11-22 07:33:46 51°14.824 2°54.966 12.7 11.8 1 7.7
2006-11-22 07:33:50 51°14.837 2°54.965 9.3 12 358 7.6
2006-11-22 07:33:55 51°14.855 2°54.964 7.1 12.2 356 7.9
2006-11-22 07:34:01 51°14.874 2°54.96 4.3 12.2 355 7.8
2006-11-22 07:34:05 51°14.887 2°54.958 4.2 12.2 355 7.7
2006-11-22 07:34:10 51°14.905 2°54.958 5.7 12.3 357 7.9
2006-11-22 07:34:16 51°14.926 2°54.954 4.6 12.3 355 8
2006-11-22 07:34:21 51°14.942 2°54.951 3 12.3 352 7.9
2006-11-22 07:34:25 51°14.956 2°54.947 1.8 12.5 351 8.2
2006-11-22 07:34:30 51°14.972 2°54.943 0.1 12.4 351 7.6
2006-11-22 07:34:35 51°14.99 2°54.939 1.1 12.4 352 7.9
2006-11-22 07:34:41 51°15.011 2°54.935 0.8 12.5 351 7.7
2006-11-22 07:34:45 51°15.024 2°54.93 359.5 12.5 349 7.9
2006-11-22 07:34:50 51°15.04 2°54.926 358.4 12.4 349 7.9
2006-11-22 07:34:55 51°15.058 2°54.918 356.7 12.6 345 7.9
2006-11-22 07:35:00 51°15.074 2°54.911 355.4 12.4 344 7.5
2006-11-22 07:35:06 51°15.095 2°54.902 353.6 12.1 343 7.2
2006-11-22 07:35:10 51°15.108 2°54.895 350.9 12.1 342 7.2
2006-11-22 07:35:14 51°15.12 2°54.887 349.2 12.3 338 6.8
2006-11-22 07:35:21 51°15.142 2°54.871 346.9 12.4 336 6.8
2006-11-22 07:35:25 51°15.154 2°54.86 345.3 12.6 332 7.2
2006-11-22 07:35:30 51°15.17 2°54.848 342.9 12.4 334 7.3
2006-11-22 07:35:35 51°15.184 2°54.835 341.5 12.3 331 7.4
2006-11-22 07:35:40 51°15.2 2°54.822 341.1 12.3 333 7.5
2006-11-22 07:35:46 51°15.218 2°54.806 340.3 12.3 330 7.6
2006-11-22 07:35:50 51°15.23 2°54.795 340.4 12.5 331 7.6
2006-11-22 07:35:56 51°15.248 2°54.778 340.3 12.6 330 5.6
2006-11-22 07:36:00 51°15.26 2°54.768 340.1 12.4 332 7.6
2006-11-22 07:36:05 51°15.276 2°54.755 341.1 12.5 332 7.7
2006-11-22 07:36:10 51°15.29 2°54.742 341.7 12.5 332 7.7
2006-11-22 07:36:15 51°15.306 2°54.728 341.5 12.7 332 7.8
2006-11-22 07:36:20 51°15.322 2°54.715 341.8 12.8 332 7.8
2006-11-22 07:36:25 51°15.338 2°54.702 341.4 12.9 332 7.9
2006-11-22 07:36:30 51°15.353 2°54.688 341 12.9 332 7.8
2006-11-22 07:36:36 51°15.373 2°54.673 341.5 12.8 332 7.8
2006-11-22 07:36:40 51°15.386 2°54.66 340.6 12.8 331 7.9
2006-11-22 07:36:46 51°15.403 2°54.647 340.4 12.7 333 7.4
2006-11-22 07:36:50 51°15.416 2°54.636 342.2 12.9 333 7.5
2006-11-22 07:36:56 51°15.435 2°54.619 341.8 13.1 333 7.8
2006-11-22 07:37:01 51°15.45 2°54.606 341.8 13 331 7.9
2006-11-22 07:37:05 51°15.463 2°54.595 342.4 12.9 333 8.2
2006-11-22 07:37:10 51°15.48 2°54.581 342.2 12.8 331 8.5
2006-11-22 07:37:15 51°15.496 2°54.567 342 13 333 8.4
2006-11-22 07:37:20 51°15.511 2°54.554 342.4 13 331 8.3
2006-11-22 07:37:26 51°15.531 2°54.538 343 13.2 332 8.6
2006-11-22 07:37:30 51°15.543 2°54.526 342.5 13.1 331 8.8
2006-11-22 07:37:35 51°15.56 2°54.512 342.3 13.2 331 8.6
2006-11-22 07:37:40 51°15.575 2°54.499 342.3 13 332 8.6
2006-11-22 07:37:46 51°15.594 2°54.482 342 13.2 332 8.8
2006-11-22 07:37:50 51°15.608 2°54.469 342.2 13.3 330 8.9
2006-11-22 07:37:56 51°15.626 2°54.452 341.2 13.3 330 9
2006-11-22 07:38:00 51°15.639 2°54.439 340 13.3 328 9
2006-11-22 07:38:05 51°15.654 2°54.423 339 13.2 326 9.1
2006-11-22 07:38:10 51°15.669 2°54.406 337.8 13.3 325 9.2
2006-11-22 07:38:16 51°15.687 2°54.385 337.3 13.1 324 9.2
2006-11-22 07:38:20 51°15.7 2°54.371 335.3 13.1 324 9.4
2006-11-22 07:38:25 51°15.713 2°54.355 334.3 13.2 322 9.4
2006-11-22 07:38:30 51°15.728 2°54.335 333.7 13.4 322 9.4
2006-11-22 07:38:36 51°15.745 2°54.314 332.3 13.3 321 9.3
2006-11-22 07:38:40 51°15.756 2°54.298 332.1 13.3 319 9.4
2006-11-22 07:38:45 51°15.771 2°54.279 331.6 13.3 321 9.7
2006-11-22 07:38:50 51°15.784 2°54.26 331.2 13.4 319 9.6
2006-11-22 07:38:56 51°15.802 2°54.237 331.7 13.4 320 9.7
2006-11-22 07:39:00 51°15.813 2°54.222 331.5 13.4 320 9.6
2006-11-22 07:39:06 51°15.831 2°54.2 331.1 13.3 320 9.6
2006-11-22 07:39:10 51°15.841 2°54.184 331.8 13.4 321 9.6
2006-11-22 07:39:15 51°15.855 2°54.166 331.2 13.2 320 9.7
2006-11-22 07:39:20 51°15.87 2°54.146 331.1 13.4 319 9.9
2006-11-22 07:39:25 51°15.883 2°54.128 330.7 13.2 320 9.8
2006-11-22 07:39:30 51°15.896 2°54.109 330.9 13.1 319 9.8
2006-11-22 07:39:35 51°15.912 2°54.089 330.6 13.1 320 10.1
2006-11-22 07:39:40 51°15.924 2°54.071 330.5 13 319 9.9
2006-11-22 07:39:46 51°15.941 2°54.048 330.5 13.1 319 10
2006-11-22 07:39:50 51°15.952 2°54.033 330.6 13.2 319 10
2006-11-22 07:39:55 51°15.965 2°54.014 330.2 13.1 319 10.1
2006-11-22 07:40:00 51°15.98 2°53.994 330.4 13.1 320 10.2
2006-11-22 07:40:05 51°15.993 2°53.976 330.9 13.1 319 10
2006-11-22 07:40:10 51°16.007 2°53.958 331.2 13.1 321 10
2006-11-22 07:40:15 51°16.021 2°53.938 330.9 13.2 320 10.2
2006-11-22 07:40:20 51°16.035 2°53.92 331.4 13.2 320 10.1
2006-11-22 07:40:26 51°16.052 2°53.897 331.5 13.2 320 10.3
2006-11-22 07:40:30 51°16.063 2°53.882 331.2 13.3 319 10.3
2006-11-22 07:40:36 51°16.08 2°53.858 330.8 13.3 319 10.5
2006-11-22 07:40:40 51°16.091 2°53.843 330.7 13.3 319 10.5
2006-11-22 07:40:46 51°16.107 2°53.82 331.2 13.3 319 10.5
2006-11-22 07:40:50 51°16.118 2°53.806 331 13.2 319 10.3
2006-11-22 07:40:56 51°16.136 2°53.782 331.6 13.3 320 10.6
2006-11-22 07:41:00 51°16.147 2°53.767 331.4 13.2 319 10.4
2006-11-22 07:41:05 51°16.161 2°53.748 331.4 13.3 319 10.5
2006-11-22 07:41:10 51°16.174 2°53.73 331.3 13.1 320 10.5
2006-11-22 07:41:16 51°16.191 2°53.707 331.2 13.1 320 10.6
2006-11-22 07:41:19 51°16.2 2°53.696 331.6 13.1 320 10.5
2006-11-22 07:41:25 51°16.216 2°53.674 332 13 321 10.6
2006-11-22 07:41:30 51°16.23 2°53.657 332.4 12.9 321 10.6
2006-11-22 07:41:36 51°16.247 2°53.635 332.4 13 323 10.6
2006-11-22 07:41:40 51°16.259 2°53.619 332.8 13 321 10.7
2006-11-22 07:41:45 51°16.272 2°53.603 332.8 12.9 321 10.4
2006-11-22 07:41:50 51°16.286 2°53.585 332.4 12.9 320 10.5
2006-11-22 07:41:55 51°16.3 2°53.565 332.1 13 320 10.8
2006-11-22 07:42:00 51°16.314 2°53.547 332.2 13.1 320 10.8
2006-11-22 07:42:06 51°16.331 2°53.525 331.7 12.9 321 10.9
2006-11-22 07:42:10 51°16.343 2°53.511 332 12.9 322 11
2006-11-22 07:42:15 51°16.356 2°53.493 332.4 13 320 10.9
2006-11-22 07:42:20 51°16.37 2°53.475 332 13 320 10.9
2006-11-22 07:42:26 51°16.387 2°53.452 332 12.9 320 11.1
2006-11-22 07:42:30 51°16.398 2°53.438 332.1 13 322 11.2
2006-11-22 07:42:36 51°16.414 2°53.417 332.3 12.9 321 10.9
2006-11-22 07:42:40 51°16.426 2°53.402 333.1 13.1 321 11.2
2006-11-22 07:42:46 51°16.442 2°53.383 333 12.9 322 11
2006-11-22 07:42:50 51°16.454 2°53.368 333.1 12.8 322 11
2006-11-22 07:42:56 51°16.471 2°53.347 333.8 12.8 322 11
2006-11-22 07:43:00 51°16.482 2°53.333 333.8 13 322 11
2006-11-22 07:43:05 51°16.496 2°53.315 334.1 12.9 322 10.9
2006-11-22 07:43:10 51°16.51 2°53.298 333.7 12.9 322 10.8
2006-11-22 07:43:16 51°16.529 2°53.276 333.4 13 323 11.1
2006-11-22 07:43:20 51°16.539 2°53.264 333.4 12.7 324 10.8
2006-11-22 07:43:26 51°16.556 2°53.244 334.4 12.8 324 10.8
2006-11-22 07:43:29 51°16.565 2°53.234 334.5 12.9 323 10.6
2006-11-22 07:43:36 51°16.585 2°53.21 334.1 12.9 323 10.7
2006-11-22 07:43:40 51°16.596 2°53.196 334 13 323 10.7
2006-11-22 07:43:46 51°16.614 2°53.176 333.8 12.8 323 10.6
2006-11-22 07:43:50 51°16.625 2°53.162 333.8 12.7 323 10.8
2006-11-22 07:43:56 51°16.642 2°53.143 333.7 12.8 323 10.7
2006-11-22 07:44:00 51°16.653 2°53.129 333.8 12.7 323 10.5
2006-11-22 07:44:05 51°16.668 2°53.111 333.9 12.8 324 10.6
2006-11-22 07:44:10 51°16.681 2°53.097 334.2 12.6 324 10.3
2006-11-22 07:44:15 51°16.696 2°53.079 334.1 12.7 324 10.5
2006-11-22 07:44:20 51°16.709 2°53.064 334.1 12.4 324 10.3
2006-11-22 07:44:26 51°16.727 2°53.043 334.3 12.6 324 10.5
2006-11-22 07:44:30 51°16.738 2°53.03 334.2 12.6 324 10.2
2006-11-22 07:44:36 51°16.755 2°53.011 334.6 12.6 324 10
2006-11-22 07:44:40 51°16.766 2°52.997 334.3 12.7 323 10
2006-11-22 07:44:46 51°16.783 2°52.977 334.1 12.7 323 9.7
2006-11-22 07:44:50 51°16.794 2°52.965 333.8 12.6 323 9.3
2006-11-22 07:44:56 51°16.811 2°52.945 333.5 12.6 323 8.7
2006-11-22 07:45:00 51°16.822 2°52.931 333.6 12.5 323 8.3
2006-11-22 07:45:05 51°16.836 2°52.914 333.5 12.4 323 8.2
2006-11-22 07:45:10 51°16.849 2°52.898 333.2 12.3 322 8.1
2006-11-22 07:45:16 51°16.865 2°52.878 333.3 12.2 323 8.2
2006-11-22 07:45:21 51°16.879 2°52.863 333.7 12.3 323 8.1
2006-11-22 07:45:25 51°16.89 2°52.849 333.9 12.4 324 8.3
2006-11-22 07:45:30 51°16.903 2°52.835 334.2 12.3 324 8.2
2006-11-22 07:45:36 51°16.92 2°52.815 334.9 12.3 325 8.3
2006-11-22 07:45:40 51°16.932 2°52.802 334.3 12.4 323 8.4
2006-11-22 07:45:46 51°16.948 2°52.781 334.4 12.3 324 8.4
2006-11-22 07:45:50 51°16.959 2°52.767 334.2 12.5 322 8.7
2006-11-22 07:45:55 51°16.973 2°52.75 333.5 12.6 323 8.8
2006-11-22 07:46:00 51°16.986 2°52.734 333.5 12.6 323 8.8
2006-11-22 07:46:06 51°17.004 2°52.714 334.1 12.7 324 9.1
2006-11-22 07:46:10 51°17.015 2°52.702 334.6 12.7 325 9.1
2006-11-22 07:46:15 51°17.03 2°52.687 335.8 12.5 325 9.3
2006-11-22 07:46:21 51°17.049 2°52.668 336.7 12.8 329 9.4
2006-11-22 07:46:26 51°17.063 2°52.655 338.2 12.6 328 8.9
2006-11-22 07:46:30 51°17.076 2°52.644 339.7 12.6 331 8.7
2006-11-22 07:46:35 51°17.09 2°52.632 342.1 12.5 333 8.6
2006-11-22 07:46:40 51°17.107 2°52.62 343.7 12.3 336 8.8
2006-11-22 07:46:46 51°17.125 2°52.61 346.3 12.1 339 8.6
2006-11-22 07:46:50 51°17.139 2°52.604 350.5 12.2 341 8.6
2006-11-22 07:46:56 51°17.158 2°52.596 353 12.1 344 8.6
2006-11-22 07:47:00 51°17.172 2°52.591 354.6 12.1 348 8.7
2006-11-22 07:47:06 51°17.192 2°52.583 356 12.2 349 8.8
2006-11-22 07:47:10 51°17.205 2°52.58 358.1 12.1 351 8.3
2006-11-22 07:47:16 51°17.224 2°52.573 358.6 12.1 348 8
2006-11-22 07:47:20 51°17.237 2°52.568 358.1 12.3 348 8
2006-11-22 07:47:25 51°17.253 2°52.563 357.8 12.1 347 8.5
2006-11-22 07:47:30 51°17.27 2°52.557 356.4 12.1 346 8.9
2006-11-22 07:47:36 51°17.29 2°52.549 356.3 12.1 346 9.4
2006-11-22 07:47:40 51°17.304 2°52.543 356.3 12.4 345 9.9
2006-11-22 07:47:45 51°17.319 2°52.538 357 12.3 346 10.1
2006-11-22 07:47:50 51°17.336 2°52.531 357.4 12.3 347 10.1
2006-11-22 07:47:56 51°17.357 2°52.526 358.5 12.4 350 10
2006-11-22 07:48:01 51°17.374 2°52.521 359 12.4 349 10
2006-11-22 07:48:05 51°17.388 2°52.518 0.9 12.5 351 9.9
2006-11-22 07:48:10 51°17.404 2°52.513 0.7 12.5 350 9.7
2006-11-22 07:48:15 51°17.421 2°52.51 1.7 12.2 353 9.7
2006-11-22 07:48:21 51°17.442 2°52.505 1.2 12.3 352 9.8
2006-11-22 07:48:25 51°17.455 2°52.503 2.1 12.4 353 9.6
2006-11-22 07:48:30 51°17.473 2°52.499 2.7 12.4 353 9.7
2006-11-22 07:48:35 51°17.49 2°52.497 3.6 12.3 356 9.7
2006-11-22 07:48:40 51°17.506 2°52.494 5 12.3 354 9.6
2006-11-22 07:48:45 51°17.523 2°52.493 6.4 12.2 357 9.6
2006-11-22 07:48:50 51°17.541 2°52.491 5.7 12.3 355 9.7
2006-11-22 07:48:55 51°17.558 2°52.489 6 12.4 356 9.6
2006-11-22 07:49:00 51°17.575 2°52.487 6 12.4 356 9.5
2006-11-22 07:49:05 51°17.592 2°52.484 5.9 12.5 355 9.7
2006-11-22 07:49:10 51°17.609 2°52.482 6.2 12.5 356 9.5
2006-11-22 07:49:15 51°17.625 2°52.481 5.9 12 356 9.3
2006-11-22 07:49:20 51°17.643 2°52.479 7.9 12.2 355 9.1
2006-11-22 07:49:25 51°17.66 2°52.478 6.2 12.4 357 9.2
2006-11-22 07:49:30 51°17.678 2°52.475 5.5 12.4 353 9.3
2006-11-22 07:49:36 51°17.698 2°52.473 5.3 12.3 356 9.5
2006-11-22 07:49:40 51°17.712 2°52.471 5 12.4 354 9.8
2006-11-22 07:49:46 51°17.731 2°52.469 4.9 12.3 357 9.5
2006-11-22 07:49:50 51°17.745 2°52.464 5.3 12.4 353 9.6
2006-11-22 07:49:55 51°17.762 2°52.463 4.2 12.2 355 9.6
2006-11-22 07:50:00 51°17.779 2°52.46 5 12.3 353 9.6
2006-11-22 07:50:05 51°17.797 2°52.457 4.4 12.3 355 9.8
2006-11-22 07:50:10 51°17.814 2°52.456 5.5 12.3 357 9.7
2006-11-22 07:50:15 51°17.83 2°52.454 5.4 12.1 355 9.5
2006-11-22 07:50:20 51°17.847 2°52.454 6.1 12.1 357 9.6
2006-11-22 07:50:25 51°17.864 2°52.454 8.1 12.1 1 9.6
2006-11-22 07:50:31 51°17.885 2°52.461 11.9 12.4 10 9.4
2006-11-22 07:50:35 51°17.898 2°52.463 17 12.4 10 9.4
2006-11-22 07:50:40 51°17.913 2°52.47 17.3 11.9 11 9.3
2006-11-22 07:50:45 51°17.929 2°52.476 23.7 11.9 16 9.5
2006-11-22 07:50:50 51°17.947 2°52.484 23.5 12.3 13 9.5
2006-11-22 07:50:55 51°17.962 2°52.495 28.4 12.5 23 9.7
2006-11-22 07:51:00 51°17.977 2°52.506 28.9 12 20 9.9
2006-11-22 07:51:06 51°17.994 2°52.522 34.8 11.7 33 10.1
2006-11-22 07:51:10 51°18.006 2°52.535 38.6 12.2 30 10.2
2006-11-22 07:51:16 51°18.023 2°52.553 40.3 12.7 34 10.2
2006-11-22 07:51:20 51°18.036 2°52.564 39.1 12.8 30 10.1
2006-11-22 07:51:25 51°18.05 2°52.578 36.8 12.4 29 10.2
2006-11-22 07:51:31 51°18.067 2°52.595 39.4 12 34 10.2
2006-11-22 07:51:36 51°18.08 2°52.612 37.8 11.8 35 10.1
2006-11-22 07:51:40 51°18.091 2°52.623 44 12.4 35 10.1
2006-11-22 07:51:45 51°18.105 2°52.642 44.5 13.1 39 10.1
2006-11-22 07:51:50 51°18.121 2°52.657 39.8 13.1 30 9.8
2006-11-22 07:51:56 51°18.138 2°52.676 39.9 12.5 33 9.8
2006-11-22 07:52:00 51°18.149 2°52.688 42.7 12.2 37 9.9
2006-11-22 07:52:06 51°18.165 2°52.709 42.7 12.2 38 10
2006-11-22 07:52:10 51°18.174 2°52.726 46 12.5 43 9.8
2006-11-22 07:52:16 51°18.19 2°52.747 48.9 12.7 39 9.8
2006-11-22 07:52:20 51°18.2 2°52.764 49.7 12.8 47 10
2006-11-22 07:52:25 51°18.214 2°52.782 49.8 13.1 40 10.2
2006-11-22 07:52:30 51°18.228 2°52.799 46.1 12.5 37 10.3
2006-11-22 07:52:34 51°18.237 2°52.816 48.7 12.2 45 10.4
2006-11-22 07:52:40 51°18.252 2°52.838 49.3 12.3 44 10.4
2006-11-22 07:52:46 51°18.266 2°52.861 49.8 12.2 44 10.3
2006-11-22 07:52:50 51°18.276 2°52.876 52.9 12.5 49 10.4
2006-11-22 07:52:56 51°18.29 2°52.9 47.9 12.3 45 10.2
2006-11-22 07:53:00 51°18.302 2°52.912 51.5 12.3 39 10.3
2006-11-22 07:53:05 51°18.313 2°52.933 49.6 12.6 45 10.4
2006-11-22 07:53:10 51°18.327 2°52.949 47.2 12.4 37 10.2
2006-11-22 07:53:15 51°18.339 2°52.971 49.4 12.7 47 10.4
2006-11-22 07:53:20 51°18.353 2°52.987 47 12.6 37 10.3
2006-11-22 07:53:26 51°18.367 2°53.011 47.9 12.4 47 10.4
2006-11-22 07:53:30 51°18.377 2°53.027 51.4 12.5 45 10.4
2006-11-22 07:53:36 51°18.393 2°53.049 50.8 12.5 42 10.5
2006-11-22 07:53:40 51°18.401 2°53.066 51.2 12.3 48 10.6
2006-11-22 07:53:45 51°18.414 2°53.085 51.3 12.8 45 10.5
2006-11-22 07:53:50 51°18.428 2°53.102 47.1 12.6 37 10.4
2006-11-22 07:53:56 51°18.443 2°53.126 48 12.6 47 10.4
2006-11-22 07:54:00 51°18.455 2°53.139 47.1 12.7 38 10.3
2006-11-22 07:54:05 51°18.466 2°53.16 50.5 12.8 48 10.3
2006-11-22 07:54:10 51°18.479 2°53.18 51.2 12.6 44 10.4
2006-11-22 07:54:16 51°18.493 2°53.205 53.6 13 49 10.4
2006-11-22 07:54:20 51°18.505 2°53.219 49.6 12.9 37 10.4
2006-11-22 07:54:25 51°18.518 2°53.237 46.4 12.4 42 10.5
2006-11-22 07:54:30 51°18.531 2°53.255 46.4 12.3 39 10.6
2006-11-22 07:54:36 51°18.546 2°53.277 46.1 12.5 42 10.6
2006-11-22 07:54:41 51°18.56 2°53.295 47.1 12.6 39 10.5
2006-11-22 07:54:45 51°18.57 2°53.309 49.8 12.6 42 10.5
2006-11-22 07:54:50 51°18.583 2°53.329 48 12.6 42 10.5
2006-11-22 07:54:55 51°18.597 2°53.346 47.6 12.7 37 10.5
2006-11-22 07:55:00 51°18.61 2°53.364 45.9 12.4 39 10.5
2006-11-22 07:55:06 51°18.626 2°53.386 47.9 12.4 43 10.6
2006-11-22 07:55:10 51°18.636 2°53.401 46.9 12.3 41 10.7
2006-11-22 07:55:15 51°18.648 2°53.42 48.4 12.5 45 10.8
2006-11-22 07:55:20 51°18.662 2°53.439 51.4 12.9 44 10.8
2006-11-22 07:55:25 51°18.675 2°53.457 45.1 12.6 40 10.8
2006-11-22 07:55:30 51°18.688 2°53.476 48.2 12.9 44 10.8
2006-11-22 07:55:35 51°18.702 2°53.49 45 12.4 34 10.9
2006-11-22 07:55:40 51°18.714 2°53.511 46.8 12.2 46 10.8
2006-11-22 07:55:46 51°18.73 2°53.532 46.6 12.3 38 10.6
2006-11-22 07:55:50 51°18.74 2°53.547 50 12.6 48 10.6
2006-11-22 07:55:56 51°18.756 2°53.567 45.3 12.3 36 10.5
2006-11-22 07:56:00 51°18.767 2°53.582 48.6 12.8 48 10.8
2006-11-22 07:56:05 51°18.781 2°53.597 44.3 12.5 34 10.9
2006-11-22 07:56:10 51°18.794 2°53.616 46.1 12.3 45 11
2006-11-22 07:56:16 51°18.81 2°53.636 46.9 12.3 37 11
2006-11-22 07:56:20 51°18.82 2°53.65 46.4 12.2 41 11.1
2006-11-22 07:56:25 51°18.833 2°53.668 47.9 12.3 42 11.2
2006-11-22 07:56:30 51°18.846 2°53.685 45.8 12.2 38 11.1
2006-11-22 07:56:35 51°18.859 2°53.702 46.5 12.2 38 11
2006-11-22 07:56:40 51°18.873 2°53.72 45.7 12.5 38 11.1
2006-11-22 07:56:45 51°18.886 2°53.735 44.1 12.2 38 11.1
2006-11-22 07:56:50 51°18.899 2°53.754 45.9 12.3 42 11.2
2006-11-22 07:56:56 51°18.915 2°53.774 46.3 12.3 39 11.2
2006-11-22 07:57:00 51°18.925 2°53.79 47.5 12.4 44 11.1
2006-11-22 07:57:05 51°18.938 2°53.807 47.6 12.2 41 11
2006-11-22 07:57:10 51°18.951 2°53.826 48.3 12.4 41 10.9
2006-11-22 07:57:15 51°18.964 2°53.843 46.4 12.7 38 10.9
2006-11-22 07:57:20 51°18.978 2°53.86 45 12.3 39 11.1
2006-11-22 07:57:25 51°18.99 2°53.879 48.2 12.3 45 11.2
2006-11-22 07:57:30 51°19.003 2°53.896 47.7 12.2 38 11.2
2006-11-22 07:57:35 51°19.015 2°53.914 47.7 12.1 42 11.2
2006-11-22 07:57:41 51°19.032 2°53.935 48.9 12.4 38 11.2
2006-11-22 07:57:45 51°19.041 2°53.951 47.1 12.4 44 11.2
2006-11-22 07:57:50 51°19.054 2°53.968 46.5 12.3 39 11
2006-11-22 07:57:55 51°19.067 2°53.985 48.4 12.2 42 11.1
2006-11-22 07:58:01 51°19.082 2°54.009 49.2 12.5 43 11.3
2006-11-22 07:58:06 51°19.096 2°54.024 46 12.6 34 11.2
2006-11-22 07:58:11 51°19.11 2°54.042 46.3 12.7 43 11.2
2006-11-22 07:58:15 51°19.121 2°54.056 44.2 12.6 36 11.2
2006-11-22 07:58:20 51°19.133 2°54.075 45.7 12.5 44 11.3
2006-11-22 07:58:26 51°19.147 2°54.098 45.4 11.9 42 11
2006-11-22 07:58:30 51°19.157 2°54.112 51.1 12.6 52 11.1
2006-11-22 07:58:35 51°19.17 2°54.129 46.4 12.2 36 11.1
2006-11-22 07:58:40 51°19.182 2°54.149 53.2 12 48 11.2
2006-11-22 07:58:45 51°19.194 2°54.167 50.2 12.5 40 11.2
2006-11-22 07:58:50 51°19.207 2°54.186 47.9 12.5 42 11.3
2006-11-22 07:58:56 51°19.222 2°54.208 48.6 12.3 42 11.5
2006-11-22 07:59:01 51°19.234 2°54.227 50.5 12.4 46 11.7
2006-11-22 07:59:05 51°19.244 2°54.242 48.9 12.3 42 11.7
2006-11-22 07:59:10 51°19.256 2°54.26 49.5 11.9 44 11.6
2006-11-22 07:59:15 51°19.267 2°54.281 52.8 12.5 48 11.6
2006-11-22 07:59:21 51°19.283 2°54.302 48.6 12.2 41 11.5
2006-11-22 07:59:26 51°19.295 2°54.322 52.4 12.3 49 11.5
2006-11-22 07:59:30 51°19.305 2°54.338 51.4 12.7 43 11.4
2006-11-22 07:59:36 51°19.32 2°54.358 48.4 11.9 39 11.5
2006-11-22 07:59:40 51°19.329 2°54.374 48.3 12 49 11.4
2006-11-22 07:59:45 51°19.343 2°54.39 49.3 12.4 35 11.2
2006-11-22 07:59:50 51°19.356 2°54.407 44.2 12.2 37 11.2
2006-11-22 07:59:55 51°19.37 2°54.423 44.7 12.2 35 11.3
2006-11-22 08:00:00 51°19.383 2°54.44 44.2 12.4 37 11.3
2006-11-22 08:00:06 51°19.401 2°54.457 42.1 12.5 32 11.6
2006-11-22 08:00:10 51°19.411 2°54.473 41.8 12.3 35 11.6
2006-11-22 08:00:16 51°19.427 2°54.492 45.3 12.5 37 11.8
2006-11-22 08:00:20 51°19.438 2°54.505 44 12.4 35 11.8
2006-11-22 08:00:25 51°19.452 2°54.521 43.4 12 36 11.7
2006-11-22 08:00:30 51°19.464 2°54.538 44.9 12 40 11.8
2006-11-22 08:00:36 51°19.481 2°54.557 46 12.3 35 11.7
2006-11-22 08:00:40 51°19.491 2°54.572 44.2 12.5 39 11.7
2006-11-22 08:00:45 51°19.506 2°54.587 42.1 12.4 35 11.4
2006-11-22 08:00:50 51°19.52 2°54.603 44.3 12.5 35 11.5
2006-11-22 08:00:54 51°19.531 2°54.616 42.8 12.4 35 11.5
2006-11-22 08:01:00 51°19.548 2°54.635 43 12.4 36 11.8
2006-11-22 08:01:05 51°19.563 2°54.651 42.3 12.5 34 11.6
2006-11-22 08:01:10 51°19.577 2°54.665 42.1 12.4 34 11.7
2006-11-22 08:01:15 51°19.591 2°54.68 40.1 12.3 32 11.6
2006-11-22 08:01:20 51°19.606 2°54.693 40.2 12.1 30 11.7
2006-11-22 08:01:26 51°19.622 2°54.715 40.4 12.4 39 11.6
2006-11-22 08:01:30 51°19.635 2°54.724 38.4 12.5 27 11.4
2006-11-22 08:01:36 51°19.651 2°54.745 40.6 12.3 35 11.5
2006-11-22 08:01:40 51°19.662 2°54.756 42 12.1 33 11.6
2006-11-22 08:01:46 51°19.678 2°54.776 43.7 12.1 38 11.7
2006-11-22 08:01:50 51°19.689 2°54.788 41.5 12.3 32 11.8
2006-11-22 08:01:55 51°19.704 2°54.804 41.9 12.3 36 12
2006-11-22 08:02:00 51°19.716 2°54.822 45.2 12.3 39 12.1
2006-11-22 08:02:06 51°19.732 2°54.844 44.9 12.4 41 11.9
2006-11-22 08:02:10 51°19.743 2°54.855 46.2 12.4 35 12
2006-11-22 08:02:14 51°19.754 2°54.869 44.7 12.1 39 12.1
2006-11-22 08:02:20 51°19.768 2°54.891 47.1 12.2 42 12.2
2006-11-22 08:02:26 51°19.785 2°54.91 46.4 12.3 38 12.1
2006-11-22 08:02:30 51°19.796 2°54.923 44.7 12.2 37 12.2
2006-11-22 08:02:35 51°19.81 2°54.938 44.2 12.3 37 12.2
2006-11-22 08:02:40 51°19.823 2°54.956 42.4 12.6 38 12.1
2006-11-22 08:02:46 51°19.84 2°54.975 42.2 12.6 36 11.9
2006-11-22 08:02:50 51°19.851 2°54.988 44.1 12.5 39 11.9
2006-11-22 08:02:56 51°19.867 2°55.008 43.9 12.1 39 12
2006-11-22 08:03:01 51°19.881 2°55.025 45.7 12.6 38 12.1
2006-11-22 08:03:05 51°19.893 2°55.036 42.1 12.5 32 12
2006-11-22 08:03:10 51°19.907 2°55.052 42.5 12.2 37 12
2006-11-22 08:03:15 51°19.921 2°55.068 42.2 12.4 35 12.1
2006-11-22 08:03:20 51°19.935 2°55.085 40.9 12.7 37 12
2006-11-22 08:03:25 51°19.95 2°55.099 39.6 12.6 30 12
2006-11-22 08:03:30 51°19.964 2°55.116 43.1 12.5 38 12
2006-11-22 08:03:36 51°19.981 2°55.134 40.5 12.4 31 12
2006-11-22 08:03:40 51°19.991 2°55.148 42.3 12.2 39 12.1
2006-11-22 08:03:45 51°20.005 2°55.164 43.8 12.4 38 12.1
2006-11-22 08:03:50 51°20.018 2°55.181 44.6 12.7 40 12.4
2006-11-22 08:03:55 51°20.033 2°55.195 40.6 12.2 31 12.4
2006-11-22 08:04:00 51°20.046 2°55.212 44.1 12.1 40 12.4
2006-11-22 08:04:06 51°20.062 2°55.233 45 12.7 39 12.5
2006-11-22 08:04:09 51°20.071 2°55.244 43.6 12.8 37 12.3
2006-11-22 08:04:15 51°20.087 2°55.263 43.5 12.5 36 12.4
2006-11-22 08:04:20 51°20.1 2°55.28 43.5 12.2 38 12.4
2006-11-22 08:04:26 51°20.117 2°55.3 44.6 12.6 37 12.3
2006-11-22 08:04:30 51°20.129 2°55.311 42.4 12.5 33 12.3
2006-11-22 08:04:35 51°20.143 2°55.33 42.3 12.5 39 12.3
2006-11-22 08:04:40 51°20.157 2°55.346 40.3 12.4 38 12
2006-11-22 08:04:46 51°20.173 2°55.365 44.5 12.2 37 11.9
2006-11-22 08:04:50 51°20.184 2°55.379 43.5 12 35 12
2006-11-22 08:04:55 51°20.197 2°55.396 44.3 12.3 41 12.2
2006-11-22 08:05:00 51°20.21 2°55.412 43.8 12.2 38 12.4
2006-11-22 08:05:05 51°20.223 2°55.428 43.8 12 39 12.5
2006-11-22 08:05:10 51°20.236 2°55.445 44.8 12.1 38 12.6
2006-11-22 08:05:15 51°20.25 2°55.461 46 12.4 37 12.6
2006-11-22 08:05:20 51°20.263 2°55.478 43.5 12.4 38 12.5
2006-11-22 08:05:25 51°20.277 2°55.494 42.3 12.2 34 12.4
2006-11-22 08:05:30 51°20.291 2°55.51 43.5 12.4 39 12.4
2006-11-22 08:05:35 51°20.305 2°55.526 41.7 12.4 35 12.4
2006-11-22 08:05:40 51°20.319 2°55.543 43.1 12.4 38 12.4
2006-11-22 08:05:45 51°20.333 2°55.559 44.8 12.4 36 12.4
2006-11-22 08:05:50 51°20.346 2°55.577 41.8 12.3 36 12.2
2006-11-22 08:05:56 51°20.363 2°55.596 41.9 12.5 32 12.1
2006-11-22 08:06:00 51°20.374 2°55.61 42.7 12.4 38 12.4
2006-11-22 08:06:06 51°20.39 2°55.633 42.1 12.7 43 12.3
2006-11-22 08:06:10 51°20.402 2°55.643 45.1 12.6 35 12.3
2006-11-22 08:06:15 51°20.415 2°55.662 43.1 12.3 39 12.4
2006-11-22 08:06:21 51°20.433 2°55.679 43.9 12.5 31 12.5
2006-11-22 08:06:26 51°20.446 2°55.697 40.8 12.4 38 12.5
2006-11-22 08:06:30 51°20.457 2°55.709 42.3 12.6 37 12.5
2006-11-22 08:06:36 51°20.474 2°55.73 41.5 12.1 36 12.6
2006-11-22 08:06:41 51°20.487 2°55.747 45.6 12.5 42 12.7
2006-11-22 08:06:46 51°20.5 2°55.764 44.2 12.4 38 12.7
2006-11-22 08:06:50 51°20.509 2°55.779 46.4 12.1 44 12.8
2006-11-22 08:06:55 51°20.523 2°55.799 48 12.8 42 12.9
2006-11-22 08:07:00 51°20.537 2°55.814 44.3 12.6 35 12.9
2006-11-22 08:07:06 51°20.551 2°55.838 46.9 12.5 49 13
2006-11-22 08:07:10 51°20.561 2°55.852 47 12.2 39 12.9
2006-11-22 08:07:15 51°20.572 2°55.874 51.7 12.7 49 13.1
2006-11-22 08:07:20 51°20.586 2°55.887 44.8 12 32 12.8
2006-11-22 08:07:25 51°20.598 2°55.907 45 12.2 47 12.8
2006-11-22 08:07:30 51°20.613 2°55.921 43.9 12.3 32 12.7
2006-11-22 08:07:36 51°20.625 2°55.946 47.3 12.3 50 12.8
2006-11-22 08:07:40 51°20.637 2°55.958 48.2 12.1 37 12.9
2006-11-22 08:07:45 51°20.648 2°55.977 49.3 12.1 45 13
2006-11-22 08:07:50 51°20.661 2°55.995 48.4 12.3 43 12.9
2006-11-22 08:07:56 51°20.676 2°56.018 46 12.4 44 12.7
2006-11-22 08:08:00 51°20.688 2°56.03 46.8 12.5 36 12.7
2006-11-22 08:08:05 51°20.7 2°56.048 45.6 12.1 41 12.9
2006-11-22 08:08:10 51°20.713 2°56.068 46.9 12.4 44 12.9
2006-11-22 08:08:15 51°20.727 2°56.085 45.5 12.5 37 13.1
2006-11-22 08:08:21 51°20.742 2°56.106 44.2 12.2 41 13
2006-11-22 08:08:26 51°20.756 2°56.122 46.3 12.5 39 13
2006-11-22 08:08:30 51°20.766 2°56.136 44.2 12.4 37 13.1
2006-11-22 08:08:35 51°20.778 2°56.157 48.1 12.4 48 13.4
2006-11-22 08:08:40 51°20.792 2°56.173 45.7 12.3 37 13
2006-11-22 08:08:46 51°20.807 2°56.195 47.6 12.3 45 13.1
2006-11-22 08:08:50 51°20.817 2°56.209 46.3 12.4 39 13.1
2006-11-22 08:08:55 51°20.831 2°56.228 47.7 12.7 43 12.9
2006-11-22 08:09:01 51°20.847 2°56.248 46.7 12.5 38 13.1
2006-11-22 08:09:06 51°20.859 2°56.268 45.9 12.2 44 13
2006-11-22 08:09:10 51°20.869 2°56.281 47.5 12.1 42 13.1
2006-11-22 08:09:16 51°20.884 2°56.308 48.2 13 50 13
2006-11-22 08:09:20 51°20.897 2°56.317 45.7 12.8 33 13
2006-11-22 08:09:26 51°20.91 2°56.343 46 12.5 49 13
2006-11-22 08:09:30 51°20.922 2°56.354 47.2 12.8 34 12.9
2006-11-22 08:09:36 51°20.937 2°56.379 46.6 12.7 48 13
2006-11-22 08:09:40 51°20.948 2°56.392 46.3 12.4 38 13.2
2006-11-22 08:09:45 51°20.959 2°56.411 49 12.3 46 13.3
2006-11-22 08:09:50 51°20.973 2°56.43 48 12.7 41 13.3
2006-11-22 08:09:56 51°20.99 2°56.45 46.5 12.4 36 13.4
2006-11-22 08:10:00 51°20.999 2°56.466 44.5 12.3 44 13.3
2006-11-22 08:10:05 51°21.014 2°56.48 44.3 12.6 34 13.1
2006-11-22 08:10:10 51°21.027 2°56.5 45 12.6 43 13.2
2006-11-22 08:10:15 51°21.039 2°56.517 44.4 12.4 39 13.1
2006-11-22 08:10:20 51°21.052 2°56.536 45.8 12.5 43 13.3
2006-11-22 08:10:25 51°21.066 2°56.552 44.4 12.3 39 13.3
2006-11-22 08:10:30 51°21.078 2°56.571 46.2 12.3 42 13.3
2006-11-22 08:10:35 51°21.092 2°56.589 47.1 12.7 40 13.4
2006-11-22 08:10:40 51°21.106 2°56.607 44.5 12.7 38 13.5
2006-11-22 08:10:45 51°21.119 2°56.624 43.8 12.3 40 13.6
2006-11-22 08:10:50 51°21.132 2°56.642 45.1 12.3 40 13.6
2006-11-22 08:10:55 51°21.145 2°56.66 46.2 12.5 42 13.6
2006-11-22 08:11:00 51°21.158 2°56.678 45.5 12.5 42 13.6
2006-11-22 08:11:05 51°21.171 2°56.695 46.9 12.4 39 13.4
2006-11-22 08:11:10 51°21.184 2°56.715 46.4 12.6 42 13.5
2006-11-22 08:11:16 51°21.2 2°56.736 46.6 12.5 40 13.5
2006-11-22 08:11:21 51°21.213 2°56.754 47.1 12.4 42 13.7
2006-11-22 08:11:26 51°21.225 2°56.772 44.8 12.4 39 13.6
2006-11-22 08:11:30 51°21.235 2°56.787 47.5 12.4 45 13.6
2006-11-22 08:11:34 51°21.246 2°56.803 48 12.7 42 13.6
2006-11-22 08:11:40 51°21.262 2°56.823 44.5 12.6 38 13.6
2006-11-22 08:11:46 51°21.278 2°56.844 46 12.4 40 13.6
2006-11-22 08:11:50 51°21.289 2°56.86 44.8 12.4 38 13.5
2006-11-22 08:11:55 51°21.303 2°56.876 45.4 12.7 36 13.6
2006-11-22 08:12:00 51°21.316 2°56.894 41.7 12.4 41 13.4
2006-11-22 08:12:06 51°21.332 2°56.914 46.6 12.3 38 13.4
2006-11-22 08:12:10 51°21.342 2°56.929 45 12.4 37 13.4
2006-11-22 08:12:15 51°21.354 2°56.947 47 12.2 41 13.5
2006-11-22 08:12:20 51°21.367 2°56.965 47.7 12.1 41 13.6
2006-11-22 08:12:25 51°21.379 2°56.984 48.2 12.1 46 13.7
2006-11-22 08:12:30 51°21.392 2°57.003 46.6 12.4 41 13.7
2006-11-22 08:12:36 51°21.406 2°57.024 46.9 12.1 42 13.8
2006-11-22 08:12:41 51°21.417 2°57.045 50.3 12.3 49 13.9
2006-11-22 08:12:45 51°21.427 2°57.059 51.9 12.3 45 13.8
2006-11-22 08:12:50 51°21.438 2°57.082 51.7 12.3 49 13.9
2006-11-22 08:12:56 51°21.453 2°57.103 50.8 12.4 41 13.8
2006-11-22 08:13:00 51°21.462 2°57.121 51.9 12.7 52 14
2006-11-22 08:13:05 51°21.476 2°57.137 47.2 12.5 37 13.9
2006-11-22 08:13:10 51°21.487 2°57.157 48.4 12.2 48 13.9
2006-11-22 08:13:14 51°21.498 2°57.171 48.8 12.4 41 13.9
2006-11-22 08:13:21 51°21.515 2°57.198 47.9 12.6 45 13.9
2006-11-22 08:13:26 51°21.528 2°57.216 47.1 12.4 39 13.8
2006-11-22 08:13:30 51°21.538 2°57.23 48.2 12.3 44 14
2006-11-22 08:13:35 51°21.55 2°57.251 48.6 12.6 47 14.1
2006-11-22 08:13:40 51°21.564 2°57.269 47.7 12.7 40 14
2006-11-22 08:13:46 51°21.579 2°57.291 45.7 12.3 43 14.1
2006-11-22 08:13:50 51°21.588 2°57.307 49.2 12.5 49 14.1
2006-11-22 08:13:55 51°21.602 2°57.324 46.7 12.5 37 14
2006-11-22 08:14:00 51°21.613 2°57.346 50 12.4 50 14
2006-11-22 08:14:06 51°21.627 2°57.37 49.2 12.2 45 13.8
2006-11-22 08:14:10 51°21.636 2°57.386 53.2 12.5 48 13.9
2006-11-22 08:14:16 51°21.65 2°57.409 49.3 12 45 14
2006-11-22 08:14:20 51°21.658 2°57.427 54.3 12.5 58 14.4
2006-11-22 08:14:25 51°21.672 2°57.443 49.5 12.2 39 14.1
2006-11-22 08:14:30 51°21.682 2°57.465 52.2 12.2 54 14.2
2006-11-22 08:14:36 51°21.697 2°57.487 50.7 12.3 42 14.3
2006-11-22 08:14:40 51°21.706 2°57.503 49.3 12.2 48 14.2
2006-11-22 08:14:45 51°21.719 2°57.521 50.5 12.4 42 14.2
2006-11-22 08:14:50 51°21.73 2°57.541 48.6 12.3 45 14.3
2006-11-22 08:14:55 51°21.743 2°57.559 49.5 12.2 43 14.3
2006-11-22 08:15:00 51°21.754 2°57.58 50.8 12.5 49 14.3
2006-11-22 08:15:05 51°21.767 2°57.599 50 12.2 42 14.5
2006-11-22 08:15:10 51°21.776 2°57.621 53.7 12.1 55 14.4
2006-11-22 08:15:16 51°21.789 2°57.645 53.9 12.4 47 14.3
2006-11-22 08:15:20 51°21.798 2°57.665 56 13 56 14.2
2006-11-22 08:15:26 51°21.811 2°57.688 55.8 12 47 14.1
2006-11-22 08:15:30 51°21.816 2°57.705 56.7 10.9 57 14.1
2006-11-22 08:15:35 51°21.824 2°57.725 61.5 10.4 59 14.1
2006-11-22 08:15:41 51°21.831 2°57.747 62.6 9.5 62 14.2
2006-11-22 08:15:45 51°21.835 2°57.761 66.5 8.8 65 14.1
2006-11-22 08:15:50 51°21.84 2°57.777 66.5 8.3 62 14.2
2006-11-22 08:15:56 51°21.843 2°57.796 70.6 7.6 74 14.3
2006-11-22 08:16:00 51°21.846 2°57.808 70.8 7.2 69 14.1
2006-11-22 08:16:06 51°21.849 2°57.825 73.8 6.6 74 14.3
2006-11-22 08:16:10 51°21.85 2°57.836 74.4 6.3 73 14.3
2006-11-22 08:16:16 51°21.853 2°57.85 75.9 5.9 75 14.4
2006-11-22 08:16:20 51°21.853 2°57.86 77.6 5.5 83 14.3
2006-11-22 08:16:25 51°21.855 2°57.872 77.8 5.3 78 14.2
2006-11-22 08:16:30 51°21.855 2°57.883 79.8 5 83 14.2
2006-11-22 08:16:35 51°21.855 2°57.893 81.9 4.7 88 14.1
2006-11-22 08:16:40 51°21.856 2°57.903 82.3 4.5 85 14
2006-11-22 08:16:45 51°21.855 2°57.912 84.6 4.3 91 14
2006-11-22 08:16:50 51°21.856 2°57.921 85.8 4.1 89 14
2006-11-22 08:16:55 51°21.855 2°57.93 87.3 3.9 93 14
2006-11-22 08:17:00 51°21.855 2°57.938 87.7 3.7 96 14.1
2006-11-22 08:17:06 51°21.854 2°57.947 87.9 3.6 93 14
2006-11-22 08:17:10 51°21.854 2°57.954 87.6 3.5 94 14
2006-11-22 08:17:16 51°21.854 2°57.962 85 3.3 95 14
2006-11-22 08:17:21 51°21.854 2°57.969 80.2 3.1 89 13.8
2006-11-22 08:17:26 51°21.855 2°57.975 77 2.9 75 13.8
2006-11-22 08:17:30 51°21.855 2°57.98 72 2.7 87 13.8
2006-11-22 08:17:36 51°21.856 2°57.986 66.7 2.5 83 13.7
2006-11-22 08:17:41 51°21.857 2°57.99 65.1 2.2 66 13.6
2006-11-22 08:17:46 51°21.858 2°57.995 65.1 2.1 74 13.8
2006-11-22 08:17:50 51°21.859 2°57.998 62.4 1.9 70 13.9
2006-11-22 08:17:55 51°21.859 2°58.001 60.2 1.7 71 14.1
2006-11-22 08:18:00 51°21.86 2°58.006 58.8 1.8 77 14.2
2006-11-22 08:18:06 51°21.861 2°58.01 57.6 1.7 62 14
2006-11-22 08:18:10 51°21.862 2°58.011 57.4 1.6 71 14.1
2006-11-22 08:18:16 51°21.863 2°58.015 55.8 1.5 69 14.2
2006-11-22 08:18:20 51°21.864 2°58.018 54.4 1.4 63 14
2006-11-22 08:18:26 51°21.865 2°58.021 52.6 1.5 66 14.1
2006-11-22 08:18:30 51°21.865 2°58.024 52 1.3 65 14
2006-11-22 08:18:35 51°21.866 2°58.025 50.5 1.1 53 13.8
2006-11-22 08:18:40 51°21.867 2°58.027 49 1 60 13.9
2006-11-22 08:18:46 51°21.867 2°58.03 47.9 1.1 66 13.9
2006-11-22 08:18:50 51°21.868 2°58.031 47.5 0.9 50 14
2006-11-22 08:18:55 51°21.868 2°58.033 46.4 0.9 65 14
2006-11-22 08:19:00 51°21.869 2°58.034 45 0.9 63 14
2006-11-22 08:19:05 51°21.87 2°58.036 44.7 0.9 42 14
2006-11-22 08:19:10 51°21.87 2°58.037 43.2 0.7 56 13.9
2006-11-22 08:19:16 51°21.87 2°58.038 41.1 0.9 81 13.8
2006-11-22 08:19:20 51°21.87 2°58.04 40.8 0.7 68 13.8
2006-11-22 08:19:25 51°21.871 2°58.041 40.4 0.6 50 13.7
2006-11-22 08:19:30 51°21.872 2°58.041 38.6 0.5 48 13.8
2006-11-22 08:19:36 51°21.872 2°58.043 37.3 0.6 67 14
2006-11-22 08:19:40 51°21.872 2°58.044 36.2 0.6 90 14.1
2006-11-22 08:19:45 51°21.873 2°58.044 34.7 0.4 63 14
2006-11-22 08:19:50 51°21.873 2°58.045 34.4 0.4 30 13.9
2006-11-22 08:19:56 51°21.873 2°58.046 34.5 0.5 54 13.9
2006-11-22 08:20:00 51°21.874 2°58.046 33.3 0.3 20 13.9
2006-11-22 08:20:05 51°21.874 2°58.047 31.5 0.4 83 14
2006-11-22 08:20:10 51°21.874 2°58.048 30.9 0.5 74 14.1
2006-11-22 08:20:15 51°21.874 2°58.049 29.9 0.6 80 13.9
2006-11-22 08:20:21 51°21.874 2°58.049 28.4 0.4 343 13.9
2006-11-22 08:20:26 51°21.874 2°58.048 27 0.2 9 14
2006-11-22 08:20:31 51°21.874 2°58.049 25.1 0.3 78 14.1
2006-11-22 08:20:35 51°21.874 2°58.05 24.2 0.4 93 14.1
2006-11-22 08:20:40 51°21.874 2°58.049 22.8 0.4 272 13.9
2006-11-22 08:20:46 51°21.874 2°58.049 21.3 0.3 269 14
2006-11-22 08:20:51 51°21.874 2°58.049 20.1 -999 246 14
2006-11-22 08:20:55 51°21.874 2°58.049 18.8 -999 97 14.1
2006-11-22 08:21:00 51°21.874 2°58.048 17.4 0.5 268 14.2
2006-11-22 08:21:05 51°21.873 2°58.048 15.3 0.3 243 14.2
2006-11-22 08:21:10 51°21.873 2°58.047 14.3 0.2 151 14
2006-11-22 08:21:16 51°21.873 2°58.048 13.7 0.2 157 13.9
2006-11-22 08:21:20 51°21.873 2°58.048 14.1 0.2 181 13.9
2006-11-22 08:21:25 51°21.872 2°58.048 13.2 0.3 164 13.9
2006-11-22 08:21:30 51°21.871 2°58.048 12.5 0.4 199 13.9
2006-11-22 08:21:36 51°21.871 2°58.047 12.1 0.4 164 14
2006-11-22 08:21:40 51°21.87 2°58.047 11.9 0.4 205 13.9
2006-11-22 08:21:45 51°21.87 2°58.046 11.6 0.5 226 13.9
2006-11-22 08:21:50 51°21.869 2°58.046 10.8 0.5 168 14
2006-11-22 08:21:55 51°21.868 2°58.046 10.5 0.6 167 13.8
2006-11-22 08:22:00 51°21.867 2°58.047 11.2 0.6 160 13.7
2006-11-22 08:22:05 51°21.866 2°58.046 10.8 0.6 190 13.7
2006-11-22 08:22:10 51°21.866 2°58.047 10.3 0.5 175 13.8
2006-11-22 08:22:15 51°21.865 2°58.047 11 0.6 161 14
2006-11-22 08:22:20 51°21.864 2°58.046 10.6 0.5 192 14.1
2006-11-22 08:22:26 51°21.863 2°58.046 9.9 0.7 157 14.2
2006-11-22 08:22:30 51°21.862 2°58.046 9.8 0.8 211 14.3
2006-11-22 08:22:36 51°21.861 2°58.045 9.9 0.7 196 14.1
2006-11-22 08:22:40 51°21.86 2°58.045 10.1 0.7 193 14
2006-11-22 08:22:46 51°21.859 2°58.045 10 0.7 201 14
2006-11-22 08:22:50 51°21.858 2°58.044 9.5 0.7 183 14.1
2006-11-22 08:22:54 51°21.858 2°58.044 9.6 0.7 200 14.2
2006-11-22 08:23:00 51°21.856 2°58.044 9.5 0.8 206 13.9
2006-11-22 08:23:06 51°21.855 2°58.044 9.3 0.8 199 13.8
2006-11-22 08:23:10 51°21.854 2°58.044 9.9 0.8 171 13.8
2006-11-22 08:23:15 51°21.853 2°58.044 10.2 0.8 179 13.8
2006-11-22 08:23:20 51°21.851 2°58.043 10.1 0.8 193 13.9
2006-11-22 08:23:26 51°21.85 2°58.043 9.5 0.9 190 14
2006-11-22 08:23:30 51°21.849 2°58.043 9.4 0.9 181 14.1
2006-11-22 08:23:35 51°21.848 2°58.043 9.6 0.9 185 14.2
2006-11-22 08:23:40 51°21.847 2°58.043 10 0.8 163 14
2006-11-22 08:23:45 51°21.846 2°58.044 10.8 0.9 169 13.9
2006-11-22 08:23:50 51°21.845 2°58.043 10.8 1 196 13.8
2006-11-22 08:23:55 51°21.843 2°58.043 10.8 1 186 13.7
2006-11-22 08:24:00 51°21.842 2°58.044 11.8 0.8 168 13.4
2006-11-22 08:24:05 51°21.841 2°58.043 12.3 0.9 185 13.3
2006-11-22 08:24:10 51°21.84 2°58.043 13.4 1 180 13.5
2006-11-22 08:24:15 51°21.838 2°58.043 13.7 1 192 13.7
2006-11-22 08:24:21 51°21.837 2°58.043 13.2 0.9 182 14
2006-11-22 08:24:26 51°21.836 2°58.043 14.1 1 187 14.1
2006-11-22 08:24:30 51°21.834 2°58.043 14.6 1 174 14.2
2006-11-22 08:24:36 51°21.833 2°58.043 15.1 1 189 14.1
2006-11-22 08:24:40 51°21.832 2°58.042 15.2 1.1 193 14
2006-11-22 08:24:45 51°21.83 2°58.042 15.8 1 185 14.1
2006-11-22 08:24:50 51°21.829 2°58.042 16 1 193 14
2006-11-22 08:24:56 51°21.828 2°58.042 15.4 1 184 14.1
2006-11-22 08:25:00 51°21.826 2°58.042 15.2 1 195 14
2006-11-22 08:25:05 51°21.825 2°58.041 14.9 1.2 189 13.9
2006-11-22 08:25:10 51°21.823 2°58.042 14.6 1.1 182 13.7
2006-11-22 08:25:14 51°21.822 2°58.042 16.2 1 168 13.6
2006-11-22 08:25:20 51°21.821 2°58.042 16.7 1.1 187 13.4
2006-11-22 08:25:26 51°21.819 2°58.041 16.6 1.1 204 13.4
2006-11-22 08:25:30 51°21.817 2°58.041 16.6 1.1 181 13.5
2006-11-22 08:25:34 51°21.816 2°58.041 16.4 1.1 183 13.9
2006-11-22 08:25:40 51°21.815 2°58.041 16.6 1 172 14.1
2006-11-22 08:25:45 51°21.813 2°58.041 16.5 1.1 195 14
2006-11-22 08:25:50 51°21.812 2°58.04 16.9 1 181 13.9
2006-11-22 08:25:55 51°21.81 2°58.041 17.8 1.2 166 13.9
2006-11-22 08:26:00 51°21.809 2°58.041 18.1 1.1 173 13.8
2006-11-22 08:26:05 51°21.808 2°58.04 17.7 1 189 13.9
2006-11-22 08:26:10 51°21.806 2°58.041 18.3 1.1 175 14.1
2006-11-22 08:26:15 51°21.805 2°58.041 19.1 1.1 172 14
2006-11-22 08:26:21 51°21.803 2°58.041 19.2 1 183 13.9
2006-11-22 08:26:25 51°21.802 2°58.04 19.7 1.1 185 13.9
2006-11-22 08:26:30 51°21.801 2°58.04 19.7 1 182 14
2006-11-22 08:26:35 51°21.799 2°58.041 19.5 1 165 14.1
2006-11-22 08:26:41 51°21.798 2°58.041 19.6 0.6 158 14
2006-11-22 08:26:46 51°21.798 2°58.041 20.3 0.3 117 13.9
2006-11-22 08:26:50 51°21.798 2°58.042 21 0.4 73 14
2006-11-22 08:26:55 51°21.799 2°58.043 21.7 0.8 48 14
2006-11-22 08:27:00 51°21.801 2°58.043 21.5 0.9 12 13.8
2006-11-22 08:27:05 51°21.803 2°58.045 21.4 1.3 21 13.7
2006-11-22 08:27:10 51°21.806 2°58.046 20.7 1.8 16 13.5
2006-11-22 08:27:15 51°21.809 2°58.047 21.1 2.2 11 13.4
2006-11-22 08:27:20 51°21.812 2°58.048 19.6 2.6 10 13.3
2006-11-22 08:27:26 51°21.817 2°58.05 18.1 2.9 11 13.1
2006-11-22 08:27:31 51°21.821 2°58.051 16.1 3.3 11 13.3
2006-11-22 08:27:36 51°21.826 2°58.052 15 3.6 10 13.6
2006-11-22 08:27:40 51°21.83 2°58.053 14.5 3.8 6 13.9
2006-11-22 08:27:46 51°21.837 2°58.055 14.6 4.1 9 14
2006-11-22 08:27:50 51°21.841 2°58.055 14.8 4.1 6 14.2
2006-11-22 08:27:56 51°21.849 2°58.057 15 4.3 8 14
2006-11-22 08:28:00 51°21.853 2°58.059 17.5 4.4 13 14
2006-11-22 08:28:05 51°21.859 2°58.063 21.1 4.5 20 14.1
2006-11-22 08:28:10 51°21.865 2°58.067 25.3 4.6 20 14.1
2006-11-22 08:28:16 51°21.872 2°58.071 29 4.5 24 14
2006-11-22 08:28:20 51°21.876 2°58.075 32.6 4.3 29 14.1
2006-11-22 08:28:25 51°21.881 2°58.081 36 4.2 37 14.2
2006-11-22 08:28:30 51°21.886 2°58.086 37.5 4.2 30 14
2006-11-22 08:28:36 51°21.891 2°58.092 39.9 4.2 33 14.1
2006-11-22 08:28:40 51°21.895 2°58.097 41.6 4.1 39 14.3
2006-11-22 08:28:45 51°21.899 2°58.103 42 4 42 14.2
2006-11-22 08:28:50 51°21.903 2°58.109 43.9 4 45 14.2
2006-11-22 08:28:55 51°21.907 2°58.115 46.5 4 44 14
2006-11-22 08:29:00 51°21.91 2°58.122 50 3.9 49 14.1
2006-11-22 08:29:05 51°21.913 2°58.13 51.9 4 56 14.2
2006-11-22 08:29:10 51°21.916 2°58.137 54.3 3.9 54 14.1
2006-11-22 08:29:16 51°21.92 2°58.146 57.2 3.9 59 14.2
2006-11-22 08:29:21 51°21.922 2°58.154 58.5 3.9 66 14.2
2006-11-22 08:29:26 51°21.924 2°58.162 60.9 4 60 14
2006-11-22 08:29:30 51°21.925 2°58.169 65.7 3.9 78 14
2006-11-22 08:29:35 51°21.926 2°58.177 67.4 3.8 83 13.8
2006-11-22 08:29:40 51°21.927 2°58.184 70.2 3.6 75 13.3
2006-11-22 08:29:46 51°21.928 2°58.194 76 3.5 84 13.4
2006-11-22 08:29:50 51°21.927 2°58.199 78.3 3.3 94 13.6
2006-11-22 08:29:55 51°21.927 2°58.206 79.8 3.2 93 13.7
2006-11-22 08:30:00 51°21.927 2°58.213 84.5 3.1 92 13.8
2006-11-22 08:30:06 51°21.926 2°58.221 86.8 3 103 14.1
2006-11-22 08:30:10 51°21.925 2°58.226 88.5 2.9 97 14.2
2006-11-22 08:30:15 51°21.924 2°58.233 91.8 2.9 107 14.4
2006-11-22 08:30:20 51°21.923 2°58.238 93.9 2.8 109 14.4
2006-11-22 08:30:26 51°21.921 2°58.245 95.8 2.8 113 14.2
2006-11-22 08:30:30 51°21.92 2°58.25 99.2 2.7 113 14.1
2006-11-22 08:30:36 51°21.918 2°58.256 102.2 2.7 121 14
2006-11-22 08:30:41 51°21.915 2°58.261 104.5 2.7 120 14
2006-11-22 08:30:45 51°21.914 2°58.265 107.4 2.6 124 14
2006-11-22 08:30:50 51°21.912 2°58.269 111 2.6 127 14
2006-11-22 08:30:56 51°21.909 2°58.275 114.1 2.6 133 13.8
2006-11-22 08:31:00 51°21.907 2°58.278 116.3 2.5 137 13.8
2006-11-22 08:31:05 51°21.904 2°58.281 120.6 2.5 138 13.9
2006-11-22 08:31:10 51°21.901 2°58.284 123.9 2.5 143 13.8
2006-11-22 08:31:16 51°21.898 2°58.288 126.8 2.5 144 13.9
2006-11-22 08:31:20 51°21.895 2°58.29 130.6 2.5 150 13.8
2006-11-22 08:31:25 51°21.892 2°58.293 133.9 2.5 152 13.8
2006-11-22 08:31:30 51°21.889 2°58.295 136.3 2.3 154 13.8
2006-11-22 08:31:35 51°21.887 2°58.298 140 2.3 148 13.8
2006-11-22 08:31:41 51°21.882 2°58.3 143.8 2.6 161 13.5
2006-11-22 08:31:46 51°21.879 2°58.302 145.3 2.5 161 13.3
2006-11-22 08:31:50 51°21.876 2°58.302 147.6 2.5 168 13.4
2006-11-22 08:31:55 51°21.873 2°58.304 151.7 2.4 165 13.3
2006-11-22 08:32:01 51°21.869 2°58.305 155.6 2.3 169 13.3
2006-11-22 08:32:06 51°21.866 2°58.306 158.3 2.5 176 13.6
2006-11-22 08:32:10 51°21.863 2°58.306 160.4 2.5 174 13.4
2006-11-22 08:32:16 51°21.86 2°58.306 162.2 2.4 179 13.6
2006-11-22 08:32:20 51°21.857 2°58.307 166 2.3 172 13.6
2006-11-22 08:32:26 51°21.853 2°58.307 167.7 2.5 185 13.3
2006-11-22 08:32:30 51°21.85 2°58.306 170.4 2.4 181 13.4
2006-11-22 08:32:35 51°21.847 2°58.305 172.9 2.5 190 13.7
2006-11-22 08:32:41 51°21.843 2°58.305 176.5 2.4 181 13.6
2006-11-22 08:32:46 51°21.839 2°58.305 178.3 2.7 189 13.8
2006-11-22 08:32:50 51°21.836 2°58.304 180.8 2.6 190 13.8
2006-11-22 08:32:55 51°21.832 2°58.302 183.6 2.7 191 13.6
2006-11-22 08:33:01 51°21.828 2°58.301 187.4 2.6 187 13.5
2006-11-22 08:33:06 51°21.825 2°58.299 188.2 2.7 194 13.5
2006-11-22 08:33:10 51°21.822 2°58.299 190.8 2.7 191 13.5
2006-11-22 08:33:15 51°21.818 2°58.296 193 2.9 202 13.4
2006-11-22 08:33:21 51°21.814 2°58.294 194.6 2.8 196 13.6
2006-11-22 08:33:26 51°21.81 2°58.293 196.9 2.8 192 13.7
2006-11-22 08:33:30 51°21.807 2°58.292 198.4 2.8 198 13.3
2006-11-22 08:33:36 51°21.802 2°58.29 200.1 2.8 203 13.3
2006-11-22 08:33:41 51°21.799 2°58.287 202 2.8 204 13.3
2006-11-22 08:33:46 51°21.795 2°58.285 203.3 2.8 198 13.5
2006-11-22 08:33:50 51°21.792 2°58.284 205 2.8 198 13.4
2006-11-22 08:33:55 51°21.789 2°58.281 207.1 2.8 207 13.4
2006-11-22 08:34:00 51°21.785 2°58.278 209.3 2.7 204 13.5
2006-11-22 08:34:06 51°21.781 2°58.275 211.7 2.8 206 13.7
2006-11-22 08:34:10 51°21.778 2°58.272 213.5 2.8 210 13.4
2006-11-22 08:34:15 51°21.775 2°58.27 214.8 2.7 205 13.6
2006-11-22 08:34:20 51°21.771 2°58.267 217.3 2.7 209 13.6
2006-11-22 08:34:25 51°21.768 2°58.263 219.9 2.7 217 13.5
2006-11-22 08:34:30 51°21.765 2°58.26 220.9 2.6 214 13.2
2006-11-22 08:34:36 51°21.761 2°58.256 222.4 2.6 209 13.4
2006-11-22 08:34:40 51°21.759 2°58.254 225.4 2.5 215 13.3
2006-11-22 08:34:46 51°21.756 2°58.25 227.3 2.5 219 13.1
2006-11-22 08:34:50 51°21.753 2°58.247 229.3 2.7 215 13.1
2006-11-22 08:34:55 51°21.75 2°58.244 229.7 2.6 214 12.9
2006-11-22 08:35:00 51°21.748 2°58.241 230 2.5 212 13
2006-11-22 08:35:05 51°21.745 2°58.238 230.7 2.5 217 13.2
2006-11-22 08:35:10 51°21.742 2°58.234 230.8 2.4 218 13.4
2006-11-22 08:35:16 51°21.739 2°58.231 230.9 2.5 218 13.7
2006-11-22 08:35:20 51°21.737 2°58.228 230.5 2.6 212 13.8
2006-11-22 08:35:25 51°21.734 2°58.225 229.9 2.6 212 13.8
2006-11-22 08:35:30 51°21.731 2°58.221 230 2.6 221 13.7
2006-11-22 08:35:36 51°21.727 2°58.216 229.8 2.7 221 13.6
2006-11-22 08:35:40 51°21.724 2°58.213 229.8 2.9 217 13.4
2006-11-22 08:35:45 51°21.721 2°58.21 229.6 2.8 219 13.5
2006-11-22 08:35:50 51°21.718 2°58.206 229.4 2.7 216 13.5
2006-11-22 08:35:56 51°21.715 2°58.202 229.3 2.9 216 13.4
2006-11-22 08:36:00 51°21.712 2°58.199 228.5 2.9 220 13.3
2006-11-22 08:36:06 51°21.708 2°58.194 229 3 220 13.5
2006-11-22 08:36:10 51°21.705 2°58.191 229.3 3.1 218 13.6
2006-11-22 08:36:15 51°21.702 2°58.187 229.2 3.1 217 13.5
2006-11-22 08:36:20 51°21.699 2°58.182 229.6 3.1 218 13.5
2006-11-22 08:36:25 51°21.696 2°58.178 230.5 3.1 220 13.2
2006-11-22 08:36:30 51°21.692 2°58.173 231.7 3.2 222 13.1
2006-11-22 08:36:35 51°21.688 2°58.169 232.1 3.3 220 13.2
2006-11-22 08:36:40 51°21.685 2°58.163 231.8 3.4 223 13.3
2006-11-22 08:36:46 51°21.681 2°58.158 232.1 3.4 221 13.1
2006-11-22 08:36:50 51°21.678 2°58.155 232.4 3.3 220 13.2
2006-11-22 08:36:56 51°21.674 2°58.15 233.2 3.2 224 12.8
2006-11-22 08:37:00 51°21.671 2°58.146 234 3.3 219 13
2006-11-22 08:37:05 51°21.668 2°58.141 232.8 3.1 222 13.1
2006-11-22 08:37:10 51°21.665 2°58.137 232 3.1 215 13.2
2006-11-22 08:37:16 51°21.661 2°58.132 232.4 3.1 221 13.3
2006-11-22 08:37:21 51°21.657 2°58.127 233.4 3.1 220 13.5
2006-11-22 08:37:25 51°21.655 2°58.123 233.8 3.1 224 13.5
2006-11-22 08:37:30 51°21.652 2°58.118 235.3 3.1 228 13.6
2006-11-22 08:37:36 51°21.648 2°58.113 235.7 3.2 224 13.4
2006-11-22 08:37:40 51°21.645 2°58.109 235.9 3.2 223 13.3
2006-11-22 08:37:45 51°21.642 2°58.104 235.3 3.2 226 13.3
2006-11-22 08:37:50 51°21.639 2°58.099 236.4 3.3 228 13.3
2006-11-22 08:37:56 51°21.635 2°58.092 237.2 3.3 230 13.5
2006-11-22 08:38:01 51°21.632 2°58.087 237.3 3.4 225 13.6
2006-11-22 08:38:06 51°21.629 2°58.082 238 3.2 224 13.6
2006-11-22 08:38:10 51°21.627 2°58.079 238 3.2 226 13.5
2006-11-22 08:38:16 51°21.623 2°58.073 238.6 3.1 226 13.5
2006-11-22 08:38:21 51°21.62 2°58.067 238.7 3.1 230 13.4
2006-11-22 08:38:25 51°21.618 2°58.063 238.7 3.3 224 13.6
2006-11-22 08:38:30 51°21.615 2°58.059 238.7 3.1 227 13.2
2006-11-22 08:38:36 51°21.612 2°58.055 239 2.8 220 13.2
2006-11-22 08:38:40 51°21.609 2°58.052 238 2.8 220 13.1
2006-11-22 08:38:46 51°21.605 2°58.047 236.6 2.8 214 13.2
2006-11-22 08:38:50 51°21.603 2°58.044 236.2 2.6 223 13.2
2006-11-22 08:38:56 51°21.6 2°58.039 236.3 2.6 221 13.3
2006-11-22 08:39:00 51°21.598 2°58.036 236.3 2.6 220 13.4
2006-11-22 08:39:06 51°21.594 2°58.031 236.3 2.6 226 13.4
2006-11-22 08:39:10 51°21.592 2°58.029 236.4 2.5 220 13.5
2006-11-22 08:39:15 51°21.59 2°58.024 237.1 2.4 223 13.4
2006-11-22 08:39:21 51°21.587 2°58.02 236 2.4 220 13.3
2006-11-22 08:39:25 51°21.584 2°58.017 235.2 2.5 223 13.2
2006-11-22 08:39:30 51°21.582 2°58.014 235.8 2.5 221 13.1
2006-11-22 08:39:36 51°21.579 2°58.009 236.9 2.5 220 13.2
2006-11-22 08:39:40 51°21.577 2°58.006 238.6 2.5 225 13
2006-11-22 08:39:46 51°21.573 2°58.002 239.5 2.5 224 13
2006-11-22 08:39:50 51°21.572 2°57.998 240.7 2.5 226 13
2006-11-22 08:39:56 51°21.569 2°57.993 240.6 2.5 223 13.3
2006-11-22 08:40:00 51°21.567 2°57.99 241.5 2.6 225 13.5
2006-11-22 08:40:05 51°21.564 2°57.986 242.3 2.6 225 13.7
2006-11-22 08:40:10 51°21.562 2°57.982 243 2.3 230 13.5
2006-11-22 08:40:16 51°21.56 2°57.978 244.9 2.4 226 13.3
2006-11-22 08:40:21 51°21.558 2°57.974 245.5 2.3 230 13.4
2006-11-22 08:40:26 51°21.556 2°57.969 246.4 2.4 230 13.5
2006-11-22 08:40:30 51°21.554 2°57.966 247.1 2.3 227 13.6
2006-11-22 08:40:35 51°21.552 2°57.963 247.3 2.3 227 13.4
2006-11-22 08:40:41 51°21.549 2°57.958 247.7 2.4 234 13.5
2006-11-22 08:40:46 51°21.547 2°57.954 248.3 2.5 230 13.4
2006-11-22 08:40:50 51°21.546 2°57.951 249 2.3 232 13.4
2006-11-22 08:40:55 51°21.544 2°57.946 249.9 2.3 231 13.2
2006-11-22 08:41:00 51°21.542 2°57.942 251.9 2.3 236 13
2006-11-22 08:41:06 51°21.539 2°57.936 252.5 2.4 229 13.1
2006-11-22 08:41:10 51°21.537 2°57.934 252.7 2.4 229 13
2006-11-22 08:41:16 51°21.535 2°57.928 253.2 2.4 236 13.3
2006-11-22 08:41:20 51°21.533 2°57.924 253.5 2.6 236 13.4
2006-11-22 08:41:26 51°21.531 2°57.918 254.2 2.6 236 13.6
2006-11-22 08:41:30 51°21.53 2°57.914 256.2 2.6 239 13.7
2006-11-22 08:41:36 51°21.527 2°57.907 257.1 2.8 241 13.7
2006-11-22 08:41:40 51°21.525 2°57.903 258.1 2.9 242 13.6
2006-11-22 08:41:45 51°21.524 2°57.897 259.8 2.9 249 13.5
2006-11-22 08:41:50 51°21.523 2°57.891 262.1 3 243 13.5
2006-11-22 08:41:55 51°21.521 2°57.885 264.1 3.1 245 13.4
2006-11-22 08:42:01 51°21.519 2°57.878 265.1 2.9 248 13.4
2006-11-22 08:42:06 51°21.517 2°57.873 266.3 2.9 243 13.4
2006-11-22 08:42:10 51°21.516 2°57.868 267.8 2.6 246 13.2
2006-11-22 08:42:16 51°21.515 2°57.862 269.2 2.8 248 13.2
2006-11-22 08:42:20 51°21.514 2°57.858 270.3 2.6 250 13.3
2006-11-22 08:42:25 51°21.512 2°57.852 271.2 2.7 249 13.4